Yang Li Hu — BOGE — position and weather

sailwx.info

Track history (hours):
 
Tides and Currents Weather Stations Pressure Air Temp Water Temp Dewpoint Dewpoint Depression Visibility Wind Speed Wind Dir Waves Ship Positions

Yang Li Hu

Last reported at 2015-Apr-20 22:34 UTC. Time now 2015-Apr-21 01:28 UTC.
Position N 29°54' E 122°13'.

Length 244 m; draft 9 m.

Type: Tanker. MMSI: 413975000.

Date/timePositionNaut miles runAvg speedWind from/ knotsBaromVisibWave heightAir tempDewpointWater temp
2015-Apr-20 22:34N 29°54' E 122°13'0 0.0
2015-Apr-20 21:33N 29°54' E 122°13'0 0.0
2015-Apr-20 20:27N 29°54' E 122°13'0 0.0
2015-Apr-20 19:09N 29°54' E 122°13'0 0.1
2015-Apr-20 18:09N 29°54' E 122°13'0 0.0
2015-Apr-20 17:10N 29°54' E 122°13'0 0.2
2015-Apr-20 16:03N 29°54' E 122°13'0 0.0
2015-Apr-20 14:15N 29°54' E 122°13'0 0.1
2015-Apr-20 10:21N 29°54' E 122°13'0 0.0
2015-Apr-19 23:28N 29°54' E 122°13'0 0.0
2015-Apr-19 22:15N 29°54' E 122°13'0 0.1
2015-Apr-19 21:30N 29°54' E 122°13'0 0.0
2015-Apr-19 20:09N 29°54' E 122°13'0 0.0
2015-Apr-19 19:33N 29°54' E 122°13'0 0.0
2015-Apr-19 18:33N 29°54' E 122°13'0 0.1
2015-Apr-19 17:33N 29°54' E 122°13'0 0.3
2015-Apr-19 16:33N 29°54' E 122°13'0 0.1
2015-Apr-19 15:27N 29°54' E 122°13'0 0.1
2015-Apr-19 14:33N 29°54' E 122°13'0 0.2
2015-Apr-19 13:34N 29°54' E 122°13'0 0.1
2015-Apr-19 12:33N 29°54' E 122°13'0 0.1
2015-Apr-19 10:03N 29°54' E 122°13'0 0.0
2015-Apr-19 09:33N 29°54' E 122°13'0 0.0
2015-Apr-19 07:27N 29°54' E 122°13'0 0.0
2015-Apr-19 06:06N 29°54' E 122°13'0 0.1
2015-Apr-19 05:21N 29°54' E 122°13'0 0.0
2015-Apr-19 04:27N 29°54' E 122°13'0 0.2
2015-Apr-19 03:33N 29°54' E 122°13'0 0.1
2015-Apr-19 01:15N 29°54' E 122°13'0 0.1
2015-Apr-19 00:33N 29°54' E 122°13'0 0.1
2015-Apr-18 23:21N 29°54' E 122°13'0 0.1
2015-Apr-18 21:33N 29°54' E 122°13'0 0.0
2015-Apr-18 20:33N 29°54' E 122°13'0 0.0
2015-Apr-18 19:21N 29°54' E 122°13'0 0.0
2015-Apr-18 18:09N 29°54' E 122°13'0 0.1
2015-Apr-18 17:15N 29°54' E 122°13'0 0.1
2015-Apr-18 14:15N 29°54' E 122°13'0 0.2
2015-Apr-18 13:15N 29°54' E 122°13'0 0.1
2015-Apr-18 09:33N 29°54' E 122°13'1 0.9
2015-Apr-18 08:33N 29°53' E 122°13'7 6.9
2015-Apr-18 07:33N 29°47' E 122°17'7 6.5
2015-Apr-18 06:33N 29°44' E 122°23'6 6.3
2015-Apr-18 05:33N 29°45' E 122°31'9 8.4
2015-Apr-18 04:32N 29°48' E 122°40'7 6.8
2015-Apr-18 03:31N 29°51' E 122°47'  
2015-Apr-12 08:32N 29°06' E 123°33'  
Track history (hours):
 
Tides and Currents Weather Stations Pressure Air Temp Water Temp Dewpoint Dewpoint Depression Visibility Wind Speed Wind Dir Waves Ship Positions

Yang Li Hu

Last reported at 2015-Apr-20 22:34 UTC. Time now 2015-Apr-21 01:28 UTC.
Position N 29°54' E 122°13'.

Length 244 m; draft 9 m.

Type: Tanker. MMSI: 413975000.

Date/timePositionNaut miles runAvg speedWind from/ knotsBaromVisibWave heightAir tempDewpointWater temp
2015-Apr-20 22:34N 29°54' E 122°13'0 0.0
2015-Apr-20 21:33N 29°54' E 122°13'0 0.0
2015-Apr-20 20:27N 29°54' E 122°13'0 0.0
2015-Apr-20 19:09N 29°54' E 122°13'0 0.1
2015-Apr-20 18:09N 29°54' E 122°13'0 0.0
2015-Apr-20 17:10N 29°54' E 122°13'0 0.2
2015-Apr-20 16:03N 29°54' E 122°13'0 0.0
2015-Apr-20 14:15N 29°54' E 122°13'0 0.1
2015-Apr-20 10:21N 29°54' E 122°13'0 0.0
2015-Apr-19 23:28N 29°54' E 122°13'0 0.0
2015-Apr-19 22:15N 29°54' E 122°13'0 0.1
2015-Apr-19 21:30N 29°54' E 122°13'0 0.0
2015-Apr-19 20:09N 29°54' E 122°13'0 0.0
2015-Apr-19 19:33N 29°54' E 122°13'0 0.0
2015-Apr-19 18:33N 29°54' E 122°13'0 0.1
2015-Apr-19 17:33N 29°54' E 122°13'0 0.3
2015-Apr-19 16:33N 29°54' E 122°13'0 0.1
2015-Apr-19 15:27N 29°54' E 122°13'0 0.1
2015-Apr-19 14:33N 29°54' E 122°13'0 0.2
2015-Apr-19 13:34N 29°54' E 122°13'0 0.1
2015-Apr-19 12:33N 29°54' E 122°13'0 0.1
2015-Apr-19 10:03N 29°54' E 122°13'0 0.0
2015-Apr-19 09:33N 29°54' E 122°13'0 0.0
2015-Apr-19 07:27N 29°54' E 122°13'0 0.0
2015-Apr-19 06:06N 29°54' E 122°13'0 0.1
2015-Apr-19 05:21N 29°54' E 122°13'0 0.0
2015-Apr-19 04:27N 29°54' E 122°13'0 0.2
2015-Apr-19 03:33N 29°54' E 122°13'0 0.1
2015-Apr-19 01:15N 29°54' E 122°13'0 0.1
2015-Apr-19 00:33N 29°54' E 122°13'0 0.1
2015-Apr-18 23:21N 29°54' E 122°13'0 0.1
2015-Apr-18 21:33N 29°54' E 122°13'0 0.0
2015-Apr-18 20:33N 29°54' E 122°13'0 0.0
2015-Apr-18 19:21N 29°54' E 122°13'0 0.0
2015-Apr-18 18:09N 29°54' E 122°13'0 0.1
2015-Apr-18 17:15N 29°54' E 122°13'0 0.1
2015-Apr-18 14:15N 29°54' E 122°13'0 0.2
2015-Apr-18 13:15N 29°54' E 122°13'0 0.1
2015-Apr-18 09:33N 29°54' E 122°13'1 0.9
2015-Apr-18 08:33N 29°53' E 122°13'7 6.9
2015-Apr-18 07:33N 29°47' E 122°17'7 6.5
2015-Apr-18 06:33N 29°44' E 122°23'6 6.3
2015-Apr-18 05:33N 29°45' E 122°31'9 8.4
2015-Apr-18 04:32N 29°48' E 122°40'7 6.8
2015-Apr-18 03:31N 29°51' E 122°47'  
2015-Apr-12 08:32N 29°06' E 123°33'  

Dump ship's entire track history